Terminal Aerodrome Forecast
Issued by NWS Wilmington, OH

Current Version | Previous Version | Text Only | Print | Product List | Glossary Off
Versions: 1 2 3 4 5 6 7 8 9 10 11 12 13 14 15

000
FTUS41 KILN 151000 AAB
TAFDAY
TAF AMD
KDAY 151022Z 1510/1606 32014G22KT P6SM OVC015
      TEMPO 1510/1512 5SM -SHSN
     FM151800 32014G22KT P6SM BKN035
     FM152300 32005KT P6SM SKC=

USA.gov is the U.S. government's official web portal to all federal, state and local government web resources and services.